No particular awareness of the weather is required.    There are no Weather-warnings


Meteo18 Weather Cam more information Meteo18 Weather Cam


Thunder radar more information blitzortung!


Rain radar more information rain snow radar


Visit our other weather sites:

Template documentation
and downloads

And another site



Weather Underground History page Text

Daily Summary for June 6, 2016 Units:  Metric    English   Both
« Previous Day
Next Day »
Daily Weekly Monthly Yearly Custom
  High: Low: Average:
Temperature: 26.6 °C 10.6 °C 18.5 °C
Dew Point: 19.3 °C 10.3 °C 15.5 °C
Humidity: 99 % 53 % 85 %
Wind Speed: 3.2 km/h 0.0 km/h 0.1 km/h
Wind Gust: 8.0 km/h - -
Wind:- - SSW
Pressure: 1019.2 hPa 1017.2 hPa -
Precipitation: 0.0 mm    
Historical Graphs
 
 
Tabular Data for June 6, 2016
Time Temperature Dew Point Pressure Wind Wind Speed Wind Gust Humidity Rainfall Rate (Hourly)
00:12 14.2 °C 13.7 °C 1019.2 hPa Calm     97 % 0.0 mm
00:17 14.3 °C 13.8 °C 1019.2 hPa Calm     97 % 0.0 mm
00:22 14.3 °C 13.8 °C 1019.2 hPa Calm     97 % 0.0 mm
00:27 14.3 °C 13.8 °C 1019.2 hPa Calm     97 % 0.0 mm
00:32 14.2 °C 13.7 °C 1019.2 hPa Calm     97 % 0.0 mm
00:37 14.2 °C 13.7 °C 1019.2 hPa Calm     97 % 0.0 mm
00:42 14.1 °C 13.6 °C 1019.2 hPa Calm     97 % 0.0 mm
00:47 14.1 °C 13.6 °C 1019.2 hPa Calm     97 % 0.0 mm
00:52 14.1 °C 13.6 °C 1019.2 hPa Calm     97 % 0.0 mm
00:57 14.1 °C 13.6 °C 1018.8 hPa Calm     97 % 0.0 mm
01:02 14.1 °C 13.6 °C 1018.8 hPa Calm     97 % 0.0 mm
01:07 14.1 °C 13.6 °C 1018.8 hPa Calm     97 % 0.0 mm
01:12 14.0 °C 13.5 °C 1018.8 hPa Calm     97 % 0.0 mm
01:17 13.8 °C 13.3 °C 1018.8 hPa Calm     97 % 0.0 mm
01:27 13.7 °C 13.2 °C 1018.8 hPa Calm     97 % 0.0 mm
01:32 13.6 °C 13.1 °C 1018.8 hPa Calm     97 % 0.0 mm
01:37 13.4 °C 12.9 °C 1018.8 hPa Calm     97 % 0.0 mm
01:42 13.2 °C 12.7 °C 1018.8 hPa Calm     97 % 0.0 mm
01:47 13.1 °C 12.6 °C 1018.8 hPa Calm     97 % 0.0 mm
01:52 13.0 °C 12.5 °C 1018.5 hPa Calm     97 % 0.0 mm
01:57 13.0 °C 12.5 °C 1018.5 hPa Calm     97 % 0.0 mm
02:02 12.9 °C 12.4 °C 1018.5 hPa Calm   1.6 km/h 97 % 0.0 mm
02:07 12.9 °C 12.4 °C 1018.5 hPa Calm   1.6 km/h 97 % 0.0 mm
02:12 12.9 °C 12.4 °C 1018.5 hPa Calm     97 % 0.0 mm
02:17 13.1 °C 12.8 °C 1018.5 hPa Calm   1.6 km/h 98 % 0.0 mm
02:22 13.1 °C 12.8 °C 1018.5 hPa Calm   1.6 km/h 98 % 0.0 mm
02:27 13.1 °C 12.6 °C 1018.5 hPa SSE 1.6 km/h 1.6 km/h 97 % 0.0 mm
02:32 13.2 °C 12.9 °C 1018.5 hPa Calm   1.6 km/h 98 % 0.0 mm
02:37 13.1 °C 12.6 °C 1018.5 hPa Calm   1.6 km/h 97 % 0.0 mm
02:42 12.9 °C 12.4 °C 1018.5 hPa Calm   1.6 km/h 97 % 0.0 mm
02:47 12.7 °C 12.2 °C 1018.5 hPa Calm     97 % 0.0 mm
02:52 12.6 °C 12.1 °C 1018.5 hPa Calm     97 % 0.0 mm
02:57 12.4 °C 11.9 °C 1018.5 hPa Calm     97 % 0.0 mm
03:02 12.4 °C 11.9 °C 1018.5 hPa Calm     97 % 0.0 mm
03:07 12.4 °C 11.9 °C 1018.2 hPa Calm     97 % 0.0 mm
03:17 12.2 °C 11.7 °C 1018.2 hPa Calm     97 % 0.0 mm
03:27 12.2 °C 11.9 °C 1018.2 hPa Calm     98 % 0.0 mm
03:32 12.1 °C 11.8 °C 1018.2 hPa Calm     98 % 0.0 mm
03:37 12.1 °C 11.6 °C 1018.2 hPa Calm     97 % 0.0 mm
03:42 11.9 °C 11.4 °C 1018.2 hPa Calm     97 % 0.0 mm
03:52 11.8 °C 11.3 °C 1017.8 hPa Calm     97 % 0.0 mm
03:57 11.6 °C 11.1 °C 1017.8 hPa Calm     97 % 0.0 mm
04:02 11.5 °C 11.0 °C 1017.8 hPa Calm     97 % 0.0 mm
04:07 11.6 °C 11.3 °C 1017.8 hPa Calm     98 % 0.0 mm
04:12 11.6 °C 11.3 °C 1017.8 hPa Calm     98 % 0.0 mm
04:17 11.7 °C 11.4 °C 1017.8 hPa Calm     98 % 0.0 mm
04:22 11.7 °C 11.4 °C 1017.8 hPa Calm     98 % 0.0 mm
04:27 11.7 °C 11.4 °C 1017.8 hPa Calm     98 % 0.0 mm
04:37 11.7 °C 11.4 °C 1017.8 hPa Calm     98 % 0.0 mm
04:42 11.5 °C 11.0 °C 1017.8 hPa Calm     97 % 0.0 mm
04:47 11.4 °C 11.1 °C 1017.8 hPa Calm     98 % 0.0 mm
04:52 11.4 °C 11.1 °C 1017.8 hPa Calm     98 % 0.0 mm
04:57 11.3 °C 11.0 °C 1017.8 hPa Calm     98 % 0.0 mm
05:02 11.3 °C 11.0 °C 1017.8 hPa Calm     98 % 0.0 mm
05:12 11.3 °C 11.0 °C 1017.8 hPa Calm     98 % 0.0 mm
05:17 11.2 °C 10.9 °C 1017.8 hPa Calm     98 % 0.0 mm
05:22 11.2 °C 10.9 °C 1017.8 hPa Calm     98 % 0.0 mm
05:27 11.3 °C 11.0 °C 1018.2 hPa Calm     98 % 0.0 mm
05:32 11.2 °C 10.9 °C 1018.2 hPa Calm     98 % 0.0 mm
05:37 11.1 °C 10.8 °C 1018.2 hPa Calm     98 % 0.0 mm
05:42 10.9 °C 10.4 °C 1018.2 hPa Calm     97 % 0.0 mm
05:47 10.9 °C 10.6 °C 1018.2 hPa Calm     98 % 0.0 mm
05:52 10.9 °C 10.6 °C 1018.2 hPa Calm     98 % 0.0 mm
06:02 10.9 °C 10.6 °C 1018.2 hPa Calm     98 % 0.0 mm
06:12 10.8 °C 10.5 °C 1018.2 hPa Calm     98 % 0.0 mm
06:17 10.7 °C 10.4 °C 1018.5 hPa Calm     98 % 0.0 mm
06:22 10.7 °C 10.4 °C 1018.5 hPa Calm     98 % 0.0 mm
06:27 10.6 °C 10.3 °C 1018.5 hPa Calm     98 % 0.0 mm
06:32 10.6 °C 10.3 °C 1018.5 hPa Calm     98 % 0.0 mm
06:42 10.8 °C 10.5 °C 1018.5 hPa Calm     98 % 0.0 mm
06:52 11.1 °C 10.8 °C 1018.5 hPa Calm     98 % 0.0 mm
06:57 11.3 °C 11.0 °C 1018.8 hPa Calm     98 % 0.0 mm
07:02 11.6 °C 11.3 °C 1018.5 hPa Calm     98 % 0.0 mm
07:12 12.1 °C 11.8 °C 1018.5 hPa Calm     98 % 0.0 mm
07:17 12.3 °C 12.0 °C 1018.5 hPa Calm     98 % 0.0 mm
07:22 12.6 °C 12.3 °C 1018.5 hPa Calm     98 % 0.0 mm
07:32 12.8 °C 12.5 °C 1018.5 hPa Calm     98 % 0.0 mm
07:42 13.0 °C 12.7 °C 1018.5 hPa Calm   1.6 km/h 98 % 0.0 mm
07:47 13.1 °C 12.8 °C 1018.5 hPa Calm   1.6 km/h 98 % 0.0 mm
07:52 13.2 °C 12.9 °C 1018.5 hPa Calm   1.6 km/h 98 % 0.0 mm
07:57 13.3 °C 13.0 °C 1018.5 hPa Calm   1.6 km/h 98 % 0.0 mm
08:02 13.5 °C 13.2 °C 1018.5 hPa Calm   1.6 km/h 98 % 0.0 mm
08:07 13.7 °C 13.4 °C 1018.5 hPa Calm   1.6 km/h 98 % 0.0 mm
08:12 13.8 °C 13.5 °C 1018.5 hPa Calm   1.6 km/h 98 % 0.0 mm
08:17 14.0 °C 13.7 °C 1018.5 hPa Calm     98 % 0.0 mm
08:22 14.3 °C 14.0 °C 1018.5 hPa Calm   1.6 km/h 98 % 0.0 mm
08:27 14.7 °C 14.5 °C 1018.5 hPa Calm   1.6 km/h 99 % 0.0 mm
08:32 14.9 °C 14.7 °C 1018.5 hPa Calm   1.6 km/h 99 % 0.0 mm
08:37 15.0 °C 14.8 °C 1018.5 hPa Calm   3.2 km/h 99 % 0.0 mm
08:42 15.0 °C 14.8 °C 1018.5 hPa Calm   3.2 km/h 99 % 0.0 mm
08:47 15.2 °C 15.0 °C 1018.5 hPa Calm     99 % 0.0 mm
08:52 15.5 °C 15.2 °C 1018.5 hPa SSE 1.6 km/h   98 % 0.0 mm
08:57 15.6 °C 15.3 °C 1018.5 hPa Calm   3.2 km/h 98 % 0.0 mm
09:02 15.8 °C 15.5 °C 1018.5 hPa Calm   3.2 km/h 98 % 0.0 mm
09:07 15.8 °C 15.5 °C 1018.5 hPa Calm   3.2 km/h 98 % 0.0 mm
09:12 16.1 °C 15.8 °C 1018.5 hPa Calm   3.2 km/h 98 % 0.0 mm
09:17 16.2 °C 15.9 °C 1018.5 hPa SSE 1.6 km/h 1.6 km/h 98 % 0.0 mm
09:22 16.4 °C 16.1 °C 1018.5 hPa Calm   1.6 km/h 98 % 0.0 mm
09:27 16.5 °C 16.0 °C 1018.8 hPa Calm   3.2 km/h 97 % 0.0 mm
09:32 16.8 °C 16.5 °C 1018.5 hPa Calm   3.2 km/h 98 % 0.0 mm
09:37 16.9 °C 16.4 °C 1018.8 hPa Calm   3.2 km/h 97 % 0.0 mm
09:47 17.6 °C 17.0 °C 1018.8 hPa Calm   3.2 km/h 96 % 0.0 mm
09:52 17.6 °C 16.8 °C 1018.8 hPa Calm     95 % 0.0 mm
09:57 17.7 °C 16.7 °C 1018.8 hPa Calm   3.2 km/h 94 % 0.0 mm
10:02 18.2 °C 17.2 °C 1018.8 hPa Calm   3.2 km/h 94 % 0.0 mm
10:07 18.7 °C 17.4 °C 1018.8 hPa Calm   3.2 km/h 92 % 0.0 mm
10:17 19.1 °C 16.9 °C 1018.8 hPa Calm     87 % 0.0 mm
10:22 18.9 °C 16.9 °C 1018.8 hPa Calm     88 % 0.0 mm
10:27 19.3 °C 17.3 °C 1018.8 hPa Calm     88 % 0.0 mm
10:32 19.6 °C 17.0 °C 1018.8 hPa Calm     85 % 0.0 mm
10:37 19.6 °C 17.0 °C 1018.8 hPa Calm   3.2 km/h 85 % 0.0 mm
10:42 19.6 °C 17.2 °C 1018.8 hPa Calm   3.2 km/h 86 % 0.0 mm
10:52 19.2 °C 17.0 °C 1018.8 hPa Calm   4.8 km/h 87 % 0.0 mm
10:57 18.9 °C 16.7 °C 1018.8 hPa SW 3.2 km/h 6.4 km/h 87 % 0.0 mm
11:07 19.0 °C 16.6 °C 1018.8 hPa Calm   6.4 km/h 86 % 0.0 mm
11:12 19.2 °C 17.2 °C 1018.8 hPa NW 1.6 km/h 6.4 km/h 88 % 0.0 mm
11:17 19.4 °C 17.0 °C 1019.2 hPa Calm   6.4 km/h 86 % 0.0 mm
11:22 19.6 °C 17.0 °C 1019.2 hPa North 3.2 km/h 4.8 km/h 85 % 0.0 mm
11:27 19.6 °C 17.0 °C 1019.2 hPa Calm   4.8 km/h 85 % 0.0 mm
11:32 19.8 °C 17.4 °C 1018.8 hPa Calm   4.8 km/h 86 % 0.0 mm
11:37 20.3 °C 17.7 °C 1018.8 hPa Calm   8.0 km/h 85 % 0.0 mm
11:42 20.7 °C 18.5 °C 1019.2 hPa Calm   8.0 km/h 87 % 0.0 mm
11:47 21.1 °C 17.9 °C 1018.8 hPa Calm   6.4 km/h 82 % 0.0 mm
11:52 21.4 °C 18.0 °C 1018.8 hPa West 1.6 km/h 6.4 km/h 81 % 0.0 mm
11:57 21.2 °C 17.4 °C 1018.8 hPa Calm   4.8 km/h 79 % 0.0 mm
12:02 21.6 °C 18.0 °C 1018.8 hPa Calm   4.8 km/h 80 % 0.0 mm
12:07 21.7 °C 17.5 °C 1018.8 hPa Calm   6.4 km/h 77 % 0.0 mm
12:12 21.9 °C 17.7 °C 1018.8 hPa West 1.6 km/h 6.4 km/h 77 % 0.0 mm
12:17 22.4 °C 18.2 °C 1018.8 hPa Calm   6.4 km/h 77 % 0.0 mm
12:22 22.4 °C 18.4 °C 1018.8 hPa Calm   4.8 km/h 78 % 0.0 mm
12:27 22.1 °C 17.7 °C 1018.8 hPa WSW 1.6 km/h 6.4 km/h 76 % 0.0 mm
12:37 22.6 °C 18.2 °C 1018.8 hPa NNW 1.6 km/h 6.4 km/h 76 % 0.0 mm
12:42 22.6 °C 18.8 °C 1018.8 hPa Calm   4.8 km/h 79 % 0.0 mm
12:47 22.5 °C 18.1 °C 1018.8 hPa Calm   4.8 km/h 76 % 0.0 mm
12:52 22.9 °C 18.4 °C 1018.8 hPa Calm   4.8 km/h 76 % 0.0 mm
12:57 23.2 °C 18.7 °C 1018.8 hPa Calm   4.8 km/h 76 % 0.0 mm
13:07 22.9 °C 18.2 °C 1018.5 hPa ENE 3.2 km/h 4.8 km/h 75 % 0.0 mm
13:12 22.6 °C 17.9 °C 1018.5 hPa Calm   4.8 km/h 75 % 0.0 mm
13:17 22.7 °C 17.8 °C 1018.5 hPa Calm   4.8 km/h 74 % 0.0 mm
13:22 23.2 °C 18.7 °C 1018.5 hPa Calm   3.2 km/h 76 % 0.0 mm
13:32 23.8 °C 19.3 °C 1018.5 hPa Calm   1.6 km/h 76 % 0.0 mm
13:37 23.7 °C 18.4 °C 1018.5 hPa Calm   1.6 km/h 72 % 0.0 mm
13:42 23.3 °C 18.2 °C 1018.5 hPa Calm   1.6 km/h 73 % 0.0 mm
13:47 23.1 °C 18.0 °C 1018.5 hPa Calm   3.2 km/h 73 % 0.0 mm
13:52 22.9 °C 17.8 °C 1018.5 hPa Calm   3.2 km/h 73 % 0.0 mm
14:02 23.3 °C 18.4 °C 1018.5 hPa NW 1.6 km/h 3.2 km/h 74 % 0.0 mm
14:07 23.7 °C 18.4 °C 1018.5 hPa Calm   3.2 km/h 72 % 0.0 mm
14:12 24.4 °C 17.9 °C 1018.5 hPa West 1.6 km/h 3.2 km/h 67 % 0.0 mm
14:17 24.3 °C 18.0 °C 1018.2 hPa Calm   3.2 km/h 68 % 0.0 mm
14:22 24.7 °C 18.6 °C 1018.2 hPa Calm   3.2 km/h 69 % 0.0 mm
14:27 24.8 °C 17.5 °C 1018.2 hPa Calm   3.2 km/h 64 % 0.0 mm
14:32 24.8 °C 18.3 °C 1018.5 hPa Calm   6.4 km/h 67 % 0.0 mm
14:37 24.8 °C 18.0 °C 1018.2 hPa Calm   6.4 km/h 66 % 0.0 mm
14:42 24.7 °C 17.2 °C 1018.2 hPa Calm   3.2 km/h 63 % 0.0 mm
14:47 24.7 °C 18.4 °C 1018.2 hPa Calm   1.6 km/h 68 % 0.0 mm
14:52 24.4 °C 18.3 °C 1018.2 hPa Calm   3.2 km/h 69 % 0.0 mm
14:57 24.2 °C 18.6 °C 1018.2 hPa Calm   3.2 km/h 71 % 0.0 mm
15:02 24.1 °C 17.8 °C 1018.2 hPa Calm     68 % 0.0 mm
15:07 24.2 °C 18.2 °C 1018.2 hPa Calm   3.2 km/h 69 % 0.0 mm
15:12 24.2 °C 18.2 °C 1018.2 hPa Calm   3.2 km/h 69 % 0.0 mm
15:17 24.6 °C 19.2 °C 1017.8 hPa Calm   3.2 km/h 72 % 0.0 mm
15:22 25.1 °C 18.8 °C 1017.8 hPa Calm   3.2 km/h 68 % 0.0 mm
15:27 25.3 °C 18.0 °C 1017.8 hPa Calm   6.4 km/h 64 % 0.0 mm
15:32 25.4 °C 18.6 °C 1017.8 hPa Calm   6.4 km/h 66 % 0.0 mm
15:37 25.5 °C 17.2 °C 1017.8 hPa Calm   6.4 km/h 60 % 0.0 mm
15:42 25.7 °C 17.4 °C 1017.8 hPa Calm   4.8 km/h 60 % 0.0 mm
15:47 25.4 °C 18.3 °C 1017.8 hPa Calm   4.8 km/h 65 % 0.0 mm
15:52 25.1 °C 17.8 °C 1017.8 hPa Calm   3.2 km/h 64 % 0.0 mm
15:57 24.8 °C 18.5 °C 1017.8 hPa Calm   3.2 km/h 68 % 0.0 mm
16:02 24.6 °C 18.5 °C 1017.8 hPa Calm   3.2 km/h 69 % 0.0 mm
16:07 24.7 °C 18.4 °C 1017.8 hPa Calm   1.6 km/h 68 % 0.0 mm
16:12 24.8 °C 17.8 °C 1017.8 hPa Calm   1.6 km/h 65 % 0.0 mm
16:17 25.0 °C 17.7 °C 1017.8 hPa Calm   1.6 km/h 64 % 0.0 mm
16:22 25.2 °C 18.6 °C 1017.8 hPa Calm   1.6 km/h 67 % 0.0 mm
16:27 25.3 °C 17.7 °C 1017.8 hPa SW 1.6 km/h 1.6 km/h 63 % 0.0 mm
16:32 25.4 °C 17.6 °C 1017.8 hPa Calm   3.2 km/h 62 % 0.0 mm
16:37 25.6 °C 18.8 °C 1017.8 hPa Calm   3.2 km/h 66 % 0.0 mm
16:42 25.9 °C 18.6 °C 1017.8 hPa Calm   3.2 km/h 64 % 0.0 mm
16:47 26.2 °C 17.8 °C 1017.8 hPa Calm   1.6 km/h 60 % 0.0 mm
16:52 26.2 °C 17.6 °C 1017.8 hPa Calm   1.6 km/h 59 % 0.0 mm
16:57 25.9 °C 17.5 °C 1017.8 hPa WSW 1.6 km/h 3.2 km/h 60 % 0.0 mm
17:02 25.8 °C 17.4 °C 1017.8 hPa Calm   3.2 km/h 60 % 0.0 mm
17:07 25.8 °C 18.2 °C 1017.5 hPa Calm   3.2 km/h 63 % 0.0 mm
17:12 26.0 °C 17.6 °C 1017.5 hPa Calm   1.6 km/h 60 % 0.0 mm
17:17 26.2 °C 18.3 °C 1017.5 hPa Calm   3.2 km/h 62 % 0.0 mm
17:22 26.1 °C 16.9 °C 1017.5 hPa Calm   3.2 km/h 57 % 0.0 mm
17:27 26.1 °C 18.2 °C 1017.5 hPa Calm   3.2 km/h 62 % 0.0 mm
17:32 26.3 °C 18.4 °C 1017.5 hPa NE 1.6 km/h 3.2 km/h 62 % 0.0 mm
17:37 26.2 °C 17.3 °C 1017.5 hPa Calm   3.2 km/h 58 % 0.0 mm
17:42 26.3 °C 16.5 °C 1017.5 hPa Calm   4.8 km/h 55 % 0.0 mm
17:47 26.4 °C 17.7 °C 1017.5 hPa Calm   4.8 km/h 59 % 0.0 mm
17:52 26.6 °C 16.5 °C 1017.2 hPa Calm   3.2 km/h 54 % 0.0 mm
17:57 26.4 °C 16.0 °C 1017.2 hPa Calm   3.2 km/h 53 % 0.0 mm
18:02 26.3 °C 17.1 °C 1017.2 hPa West 1.6 km/h 3.2 km/h 57 % 0.0 mm
18:07 26.0 °C 16.8 °C 1017.2 hPa Calm   3.2 km/h 57 % 0.0 mm
18:12 25.9 °C 16.2 °C 1017.2 hPa Calm   3.2 km/h 55 % 0.0 mm
18:17 25.8 °C 16.6 °C 1017.2 hPa Calm   3.2 km/h 57 % 0.0 mm
18:22 25.9 °C 17.5 °C 1017.2 hPa Calm     60 % 0.0 mm
18:32 25.6 °C 17.8 °C 1017.2 hPa Calm     62 % 0.0 mm
18:37 25.3 °C 17.0 °C 1017.2 hPa WSW 1.6 km/h   60 % 0.0 mm
18:42 25.1 °C 17.6 °C 1017.2 hPa Calm   1.6 km/h 63 % 0.0 mm
18:47 25.0 °C 18.7 °C 1017.2 hPa Calm   1.6 km/h 68 % 0.0 mm
18:52 24.8 °C 18.3 °C 1017.2 hPa Calm   1.6 km/h 67 % 0.0 mm
18:57 24.6 °C 18.3 °C 1017.2 hPa Calm     68 % 0.0 mm
19:02 24.4 °C 16.6 °C 1017.2 hPa Calm     62 % 0.0 mm
19:07 24.3 °C 16.6 °C 1017.2 hPa Calm     62 % 0.0 mm
19:12 24.3 °C 16.3 °C 1017.2 hPa Calm     61 % 0.0 mm
19:17 24.3 °C 16.8 °C 1017.2 hPa Calm     63 % 0.0 mm
19:22 24.2 °C 18.2 °C 1017.2 hPa Calm     69 % 0.0 mm
19:27 24.1 °C 17.8 °C 1017.2 hPa ENE 1.6 km/h   68 % 0.0 mm
19:32 23.8 °C 17.5 °C 1017.2 hPa Calm   1.6 km/h 68 % 0.0 mm
19:37 23.7 °C 17.4 °C 1017.2 hPa Calm   1.6 km/h 68 % 0.0 mm
19:42 23.6 °C 17.8 °C 1017.5 hPa Calm   1.6 km/h 70 % 0.0 mm
19:47 23.6 °C 18.3 °C 1017.5 hPa Calm   1.6 km/h 72 % 0.0 mm
19:52 23.4 °C 17.8 °C 1017.5 hPa Calm   1.6 km/h 71 % 0.0 mm
19:57 23.3 °C 18.4 °C 1017.5 hPa Calm   1.6 km/h 74 % 0.0 mm
20:02 23.0 °C 18.1 °C 1017.5 hPa Calm     74 % 0.0 mm
20:12 22.4 °C 18.0 °C 1017.5 hPa Calm     76 % 0.0 mm
20:17 22.3 °C 18.3 °C 1017.5 hPa Calm     78 % 0.0 mm
20:22 22.1 °C 18.5 °C 1017.5 hPa Calm     80 % 0.0 mm
20:27 21.7 °C 18.5 °C 1017.5 hPa Calm     82 % 0.0 mm
20:32 21.3 °C 18.1 °C 1017.5 hPa Calm     82 % 0.0 mm
20:37 21.1 °C 17.9 °C 1017.5 hPa Calm     82 % 0.0 mm
20:42 20.8 °C 17.6 °C 1017.5 hPa Calm     82 % 0.0 mm
20:47 20.6 °C 17.8 °C 1017.5 hPa Calm     84 % 0.0 mm
20:52 20.3 °C 17.7 °C 1017.5 hPa Calm     85 % 0.0 mm
20:57 20.1 °C 17.9 °C 1017.5 hPa Calm     87 % 0.0 mm
21:02 19.7 °C 17.5 °C 1017.5 hPa Calm     87 % 0.0 mm
21:07 19.4 °C 17.2 °C 1017.8 hPa Calm     87 % 0.0 mm
21:12 19.3 °C 17.3 °C 1017.8 hPa Calm     88 % 0.0 mm
21:17 19.1 °C 17.1 °C 1017.8 hPa Calm     88 % 0.0 mm
21:22 18.9 °C 17.0 °C 1017.8 hPa Calm     89 % 0.0 mm
21:27 18.7 °C 17.0 °C 1017.8 hPa Calm     90 % 0.0 mm
21:32 18.4 °C 16.7 °C 1017.8 hPa Calm     90 % 0.0 mm
21:42 18.1 °C 16.6 °C 1017.8 hPa Calm     91 % 0.0 mm
21:47 17.9 °C 16.4 °C 1018.2 hPa Calm     91 % 0.0 mm
21:52 17.7 °C 16.2 °C 1018.2 hPa Calm     91 % 0.0 mm
22:02 17.3 °C 16.0 °C 1018.5 hPa Calm     92 % 0.0 mm
22:07 17.2 °C 15.9 °C 1018.5 hPa Calm     92 % 0.0 mm
22:12 17.1 °C 15.8 °C 1018.5 hPa Calm     92 % 0.0 mm
22:17 16.9 °C 15.8 °C 1018.5 hPa Calm     93 % 0.0 mm
22:22 16.9 °C 15.8 °C 1018.5 hPa Calm     93 % 0.0 mm
22:27 16.9 °C 16.1 °C 1018.8 hPa Calm     95 % 0.0 mm
22:32 17.1 °C 16.1 °C 1018.8 hPa Calm   1.6 km/h 94 % 0.0 mm
22:37 16.9 °C 15.9 °C 1018.8 hPa Calm   1.6 km/h 94 % 0.0 mm
22:42 16.8 °C 15.8 °C 1018.8 hPa Calm   1.6 km/h 94 % 0.0 mm
22:47 16.7 °C 15.7 °C 1018.8 hPa Calm     94 % 0.0 mm
22:52 16.6 °C 15.6 °C 1018.8 hPa Calm     94 % 0.0 mm
22:57 16.6 °C 15.6 °C 1018.8 hPa Calm     94 % 0.0 mm
23:02 16.5 °C 15.5 °C 1018.8 hPa Calm     94 % 0.0 mm
23:07 16.3 °C 15.3 °C 1018.8 hPa Calm     94 % 0.0 mm
23:12 16.2 °C 15.4 °C 1018.8 hPa Calm     95 % 0.0 mm
23:17 16.1 °C 15.1 °C 1018.8 hPa Calm     94 % 0.0 mm
23:22 15.9 °C 14.9 °C 1018.8 hPa Calm     94 % 0.0 mm
23:27 15.9 °C 15.1 °C 1018.8 hPa Calm     95 % 0.0 mm
23:32 15.9 °C 15.1 °C 1018.8 hPa Calm     95 % 0.0 mm
23:37 15.9 °C 15.1 °C 1018.8 hPa Calm     95 % 0.0 mm
23:42 15.9 °C 15.3 °C 1018.8 hPa Calm     96 % 0.0 mm
23:47 15.9 °C 15.3 °C 1018.8 hPa Calm     96 % 0.0 mm
23:52 15.9 °C 15.3 °C 1018.8 hPa Calm     96 % 0.0 mm
23:57 15.9 °C 15.3 °C 1018.8 hPa Calm     96 % 0.0 mm
Meteo18
Compliments of Weather Underground - 4 mb

Script developed by  Jim McMurry - jmcmurry@mwt.net Adapted for the template by  Wim van der Kuil - Leuven-Template.eu

You find our weather info also at:

European Weather Network

Weather Underground

Equipment we use:

Weather-station
Davis Vue

Weather-program
Meteohub

Weather-server
Raspberry PI 2 B+

Provider
1 and 1

Davis Vue

Meteohub

Raspberry PI 2 B+

1 and 1